Time;durP1;ratioP1;P1;durP2;ratioP2;P2;SDS_P1;SDS_P2;PMS_P1;PMS_P2;Temp;Humidity;BMP_temperature;BMP_pressure;BME280_temperature;BME280_humidity;BME280_pressure;Samples;Min_cycle;Max_cycle;Signal;HPM_P1;HPM_P2
2021/05/13 00:00:20;;;;;;;;;;;;;;;7.42;83.34;101042.69;5000488;28;1093;-79
2021/05/13 00:02:46;;;;;;;;;;;;;;;7.38;83.15;101038.97;5000697;28;911;-79
2021/05/13 00:05:12;;;;;;;;;;;;;;;7.31;83.56;101042.19;5000710;28;881;-78
2021/05/13 00:07:37;;;;;;;;;;;;;;;7.27;84.09;101044.75;5000077;28;1201;-79
2021/05/13 00:10:13;;;;;;;;;;;;;;;7.27;84.41;101038.44;5000670;28;1967;-79
2021/05/13 00:12:49;;;;;;;;;;;;;;;7.18;83.97;101034.84;5001174;28;873;-79
2021/05/13 00:15:20;;;;;;;;;;;;;;;7.08;84.41;101038.69;5000888;28;1209;-79
2021/05/13 00:17:45;;;;;;;;;;;;;;;6.97;84.97;101030.72;4982958;28;1376;-79
2021/05/13 00:20:14;;;;;;;;;;;;;;;6.90;85.35;101035.00;5000923;28;1054;-79
2021/05/13 00:22:40;;;;;;;;;;;;;;;6.83;85.74;101031.91;5000415;28;926;-79
2021/05/13 00:25:07;;;;;;;;;;;;;;;6.88;85.80;101037.28;5000202;28;817;-79
2021/05/13 00:27:33;;;;;;;;;;;;;;;6.97;85.60;101038.94;4999629;28;1296;-79
2021/05/13 00:29:58;;;;;;;;;;;;;;;7.02;85.48;101039.94;5000089;28;1910;-79
2021/05/13 00:32:24;;;;;;;;;;;;;;;7.02;85.58;101039.94;4999643;28;840;-80
2021/05/13 00:34:49;;;;;;;;;;;;;;;6.96;85.63;101029.09;4999521;28;829;-79
2021/05/13 00:37:14;;;;;;;;;;;;;;;6.90;86.30;101027.63;4981740;28;1217;-79
2021/05/13 00:39:40;;;;;;;;;;;;;;;6.87;86.00;101020.00;5000050;28;877;-79
2021/05/13 00:42:05;;;;;;;;;;;;;;;6.86;86.77;101020.31;4999233;28;924;-79
2021/05/13 00:44:34;;;;;;;;;;;;;;;6.88;86.86;101027.09;4999353;28;1019;-79
2021/05/13 00:47:00;;;;;;;;;;;;;;;6.88;86.87;101023.53;4998302;28;1237;-79
2021/05/13 00:49:25;;;;;;;;;;;;;;;6.90;87.09;101026.78;4999464;28;1902;-79
2021/05/13 00:51:50;;;;;;;;;;;;;;;6.90;87.42;101026.78;4999278;28;881;-79
2021/05/13 00:54:18;;;;;;;;;;;;;;;6.87;87.28;101030.16;4999432;28;1047;-79
2021/05/13 00:56:44;;;;;;;;;;;;;;;6.83;87.30;101031.91;4998853;28;824;-79
2021/05/13 00:59:11;;;;;;;;;;;;;;;6.80;87.82;101032.53;4999288;28;856;-79
2021/05/13 01:01:59;;;;;;;;;;;;;;;6.75;88.03;101022.50;4997821;28;1442;-79
2021/05/13 01:04:23;;;;;;;;;;;;;;;6.71;88.08;101021.50;4998092;28;1185;-78
2021/05/13 01:06:49;;;;;;;;;;;;;;;6.67;88.27;101029.56;4997915;28;1198;-79
2021/05/13 01:09:25;;;;;;;;;;;;;;;6.64;88.11;101032.09;4998672;28;1886;-79
2021/05/13 01:12:05;;;;;;;;;;;;;;;6.58;88.66;101034.97;4999160;28;844;-79
2021/05/13 01:19:48;;;;;;;;;;;;;;;6.44;88.97;101025.19;4998899;28;790;-79
2021/05/13 01:22:15;;;;;;;;;;;;;;;6.39;89.54;101026.13;4998003;28;905;-79
2021/05/13 01:24:41;;;;;;;;;;;;;;;6.36;89.82;101024.00;4998037;28;836;-80
2021/05/13 01:27:07;;;;;;;;;;;;;;;6.33;89.52;101027.34;4997519;28;1335;-79
2021/05/13 01:29:33;;;;;;;;;;;;;;;6.30;89.35;101020.56;4998829;28;1961;-78
2021/05/13 01:31:59;;;;;;;;;;;;;;;6.27;89.96;101023.13;4998054;28;848;-79
2021/05/13 01:34:25;;;;;;;;;;;;;;;6.24;90.31;101016.31;4998268;28;843;-79
2021/05/13 01:36:50;;;;;;;;;;;;;;;6.20;90.13;101024.34;4997420;28;1288;-79
2021/05/13 01:39:15;;;;;;;;;;;;;;;6.18;90.21;101021.13;4998235;28;1002;-79
2021/05/13 01:41:42;;;;;;;;;;;;;;;6.17;90.35;101022.22;4997756;28;1106;-79
2021/05/13 01:44:08;;;;;;;;;;;;;;;6.17;90.69;101027.72;4998030;28;980;-79
2021/05/13 01:46:35;;;;;;;;;;;;;;;6.20;90.88;101026.28;4997736;28;983;-78
2021/05/13 01:49:01;;;;;;;;;;;;;;;6.22;91.26;101018.56;4979099;28;1969;-79
2021/05/13 01:51:26;;;;;;;;;;;;;;;6.22;91.35;101024.06;4997680;28;1038;-79
2021/05/13 01:53:52;;;;;;;;;;;;;;;6.20;91.25;101009.84;4997427;28;848;-79
2021/05/13 01:56:18;;;;;;;;;;;;;;;6.17;91.37;101011.25;4997199;28;813;-78
2021/05/13 01:58:44;;;;;;;;;;;;;;;6.16;91.08;101006.09;4996495;28;1312;-79
2021/05/13 02:01:12;;;;;;;;;;;;;;;6.15;91.56;100997.06;4997117;28;870;-78
2021/05/13 02:03:38;;;;;;;;;;;;;;;6.16;91.50;101001.44;4997490;28;871;-79
2021/05/13 02:06:04;;;;;;;;;;;;;;;6.17;91.45;100992.06;4996553;28;879;-79
2021/05/13 02:08:30;;;;;;;;;;;;;;;6.22;91.57;100993.88;4996215;28;1957;-78
2021/05/13 02:10:55;;;;;;;;;;;;;;;6.25;91.33;100985.03;4996833;28;871;-78
2021/05/13 02:13:21;;;;;;;;;;;;;;;6.32;91.50;100990.09;4997202;28;975;-80
2021/05/13 02:15:46;;;;;;;;;;;;;;;6.38;91.50;100999.81;4996885;28;829;-79
2021/05/13 02:18:11;;;;;;;;;;;;;;;6.44;91.70;101001.31;4996499;28;1717;-79
2021/05/13 02:20:37;;;;;;;;;;;;;;;6.51;91.61;100993.47;4996759;28;884;-79
2021/05/13 02:23:02;;;;;;;;;;;;;;;6.57;91.33;101005.09;4996851;28;1365;-79
2021/05/13 02:25:31;;;;;;;;;;;;;;;6.61;91.19;100999.81;4996908;28;793;-78
2021/05/13 02:28:00;;;;;;;;;;;;;;;6.65;91.21;100987.09;4980051;28;1221;-79
2021/05/13 02:30:25;;;;;;;;;;;;;;;6.68;91.31;100981.78;4996870;28;1894;-78
2021/05/13 02:32:51;;;;;;;;;;;;;;;6.72;91.21;100979.22;4996930;28;1034;-78
2021/05/13 02:35:17;;;;;;;;;;;;;;;6.75;91.28;100984.09;4996754;28;922;-79
2021/05/13 02:37:42;;;;;;;;;;;;;;;6.76;90.99;100986.50;4978495;28;1316;-79
2021/05/13 02:40:09;;;;;;;;;;;;;;;6.78;90.90;100987.00;4996323;28;984;-78
2021/05/13 02:42:35;;;;;;;;;;;;;;;6.79;90.92;100982.31;4996913;28;1300;-79
2021/05/13 02:45:00;;;;;;;;;;;;;;;6.80;90.73;100977.63;4996942;28;912;-79
2021/05/13 02:47:27;;;;;;;;;;;;;;;6.81;90.65;100985.56;4996318;28;1285;-79
2021/05/13 02:49:52;;;;;;;;;;;;;;;6.82;90.34;100981.69;4996819;28;1887;-79
2021/05/13 02:52:17;;;;;;;;;;;;;;;6.83;90.60;100975.06;4996681;28;1054;-79
2021/05/13 02:54:43;;;;;;;;;;;;;;;6.86;90.55;100985.44;4979075;28;1202;-79
2021/05/13 02:57:09;;;;;;;;;;;;;;;6.90;90.20;100985.59;4996266;28;1225;-79
2021/05/13 03:00:16;;;;;;;;;;;;;;;6.92;90.19;100980.59;4997033;28;882;-79
2021/05/13 03:02:25;;;;;;;;;;;;;;;6.95;89.95;100982.72;4996349;28;1208;-79
2021/05/13 03:04:51;;;;;;;;;;;;;;;6.97;89.74;100978.56;4996861;28;905;-79
2021/05/13 03:07:16;;;;;;;;;;;;;;;6.99;89.57;100978.25;4996313;28;1216;-79
2021/05/13 03:09:45;;;;;;;;;;;;;;;7.00;89.84;100974.34;4996402;28;1961;-79
2021/05/13 03:12:11;;;;;;;;;;;;;;;7.03;89.84;100975.66;4996465;28;852;-79
2021/05/13 03:14:37;;;;;;;;;;;;;;;7.03;89.46;100973.72;4996783;28;790;-79
2021/05/13 03:17:03;;;;;;;;;;;;;;;7.06;89.64;100970.34;4994938;28;1398;-79
2021/05/13 03:19:34;;;;;;;;;;;;;;;7.08;89.25;100981.81;4996555;28;946;-79
2021/05/13 03:22:04;;;;;;;;;;;;;;;7.10;89.51;100978.75;4996313;28;845;-79
2021/05/13 03:24:41;;;;;;;;;;;;;;;7.12;89.17;100976.50;4996434;28;895;-79
2021/05/13 03:27:13;;;;;;;;;;;;;;;7.12;89.28;100965.53;4995910;28;1733;-79
2021/05/13 03:29:38;;;;;;;;;;;;;;;7.11;89.46;100966.63;4996293;28;1953;-79
2021/05/13 03:32:05;;;;;;;;;;;;;;;7.11;89.31;100963.88;4998027;28;813;-79
2021/05/13 03:34:30;;;;;;;;;;;;;;;7.12;89.19;100971.00;5000123;28;995;-79
2021/05/13 03:36:55;;;;;;;;;;;;;;;7.13;89.30;100967.16;4999271;28;1265;-79
2021/05/13 03:39:21;;;;;;;;;;;;;;;7.13;88.86;100969.91;4999692;28;863;-78
2021/05/13 03:41:46;;;;;;;;;;;;;;;7.15;88.93;100968.44;4998299;28;1003;-79
2021/05/13 03:44:11;;;;;;;;;;;;;;;7.20;88.92;100964.75;4999339;28;865;-79
2021/05/13 03:46:37;;;;;;;;;;;;;;;7.24;89.17;100957.47;4999523;28;1046;-78
2021/05/13 03:49:02;;;;;;;;;;;;;;;7.29;89.05;100959.28;4998716;28;1976;-78
2021/05/13 03:51:28;;;;;;;;;;;;;;;7.33;89.03;100952.81;4999636;28;936;-80
2021/05/13 03:53:53;;;;;;;;;;;;;;;7.38;88.65;100954.63;4982037;28;1197;-78
2021/05/13 03:56:18;;;;;;;;;;;;;;;7.44;88.29;100955.28;4999471;28;991;-79
2021/05/13 03:59:11;;;;;;;;;;;;;;;7.49;88.58;100941.38;4999342;28;1158;-79
2021/05/13 04:01:49;;;;;;;;;;;;;;;7.58;88.42;100935.91;4999072;28;1027;-79
2021/05/13 04:04:14;;;;;;;;;;;;;;;7.69;88.49;100938.03;4999558;28;845;-79
2021/05/13 04:06:40;;;;;;;;;;;;;;;7.80;88.19;100941.25;4999643;28;1006;-78
2021/05/13 04:09:10;;;;;;;;;;;;;;;7.94;87.35;100937.56;4999033;28;1894;-79
2021/05/13 04:11:37;;;;;;;;;;;;;;;8.05;86.84;100936.09;4999715;28;805;-78
2021/05/13 04:14:04;;;;;;;;;;;;;;;8.14;87.29;100941.59;4982312;28;1527;-78
2021/05/13 04:16:31;;;;;;;;;;;;;;;8.25;86.63;100945.63;4998789;28;813;-79
2021/05/13 04:18:57;;;;;;;;;;;;;;;8.33;86.08;100941.25;4998807;28;1213;-78
2021/05/13 04:21:22;;;;;;;;;;;;;;;8.38;85.48;100939.13;4998822;28;793;-79
2021/05/13 04:23:47;;;;;;;;;;;;;;;8.42;84.78;100942.03;4999614;28;868;-78
2021/05/13 04:26:13;;;;;;;;;;;;;;;8.46;85.10;100945.78;5002841;28;829;-79
2021/05/13 04:28:38;;;;;;;;;;;;;;;8.50;83.98;100940.47;4984975;28;1961;-78
2021/05/13 04:31:03;;;;;;;;;;;;;;;8.60;84.83;100935.41;5002941;28;1071;-79
2021/05/13 04:33:30;;;;;;;;;;;;;;;8.73;84.60;100936.31;5002089;28;876;-79
2021/05/13 04:35:56;;;;;;;;;;;;;;;8.81;83.85;100937.44;5001602;28;888;-78
2021/05/13 04:38:21;;;;;;;;;;;;;;;8.89;83.42;100930.28;4984229;28;1338;-79
2021/05/13 04:40:49;;;;;;;;;;;;;;;8.92;84.46;100929.63;4985632;28;1027;-79
2021/05/13 04:43:14;;;;;;;;;;;;;;;8.95;83.90;100937.22;5001988;28;893;-79
2021/05/13 04:45:40;;;;;;;;;;;;;;;8.98;83.07;100928.28;4999071;28;900;-79
2021/05/13 04:48:09;;;;;;;;;;;;;;;9.00;83.35;100934.31;4996436;28;2208;-79
2021/05/13 04:50:35;;;;;;;;;;;;;;;8.94;83.15;100933.66;4998255;28;1898;-79
2021/05/13 04:53:06;;;;;;;;;;;;;;;9.01;82.98;100928.47;4998409;28;864;-79
2021/05/13 04:55:32;;;;;;;;;;;;;;;9.04;83.03;100919.50;4998503;28;840;-79
2021/05/13 04:57:57;;;;;;;;;;;;;;;9.16;83.57;100918.00;4998013;28;1244;-79
2021/05/13 05:00:23;;;;;;;;;;;;;;;9.23;83.42;100910.03;4997864;28;868;-79
2021/05/13 05:02:48;;;;;;;;;;;;;;;9.35;82.67;100910.13;4998464;28;822;-79
2021/05/13 05:05:13;;;;;;;;;;;;;;;9.50;82.62;100910.66;4998457;28;908;-79
2021/05/13 05:07:39;;;;;;;;;;;;;;;9.66;81.82;100905.38;4997418;28;1150;-79
2021/05/13 05:10:05;;;;;;;;;;;;;;;9.80;81.57;100900.41;4998511;28;1910;-79
2021/05/13 05:12:30;;;;;;;;;;;;;;;9.87;80.98;100897.91;4997715;28;884;-79
2021/05/13 05:14:57;;;;;;;;;;;;;;;9.93;81.81;100898.50;4997838;28;837;-78
2021/05/13 05:17:22;;;;;;;;;;;;;;;9.89;80.86;100906.63;4998060;28;1256;-79
2021/05/13 05:19:48;;;;;;;;;;;;;;;9.99;81.47;100897.16;4997933;28;1065;-79
2021/05/13 05:22:13;;;;;;;;;;;;;;;10.22;80.84;100897.56;4997501;28;900;-79
2021/05/13 05:24:39;;;;;;;;;;;;;;;10.45;79.91;100895.28;4997302;28;817;-78
2021/05/13 05:27:05;;;;;;;;;;;;;;;10.72;79.34;100899.31;4997040;28;1291;-79
2021/05/13 05:29:30;;;;;;;;;;;;;;;11.02;77.72;100893.63;4997540;28;1894;-79
2021/05/13 05:31:55;;;;;;;;;;;;;;;11.25;77.38;100895.91;4998076;28;787;-79
2021/05/13 05:34:21;;;;;;;;;;;;;;;11.59;76.02;100889.06;4998173;28;916;-79
2021/05/13 05:36:46;;;;;;;;;;;;;;;11.80;75.29;100882.50;4997096;28;1295;-79
2021/05/13 05:39:11;;;;;;;;;;;;;;;11.92;74.70;100882.53;4980231;28;1174;-80
2021/05/13 05:41:37;;;;;;;;;;;;;;;12.11;74.07;100881.03;4998162;28;1050;-79
2021/05/13 05:44:02;;;;;;;;;;;;;;;12.22;73.37;100880.19;4998473;28;980;-79
2021/05/13 05:46:27;;;;;;;;;;;;;;;12.13;73.45;100885.09;4998205;28;880;-79
2021/05/13 05:48:55;;;;;;;;;;;;;;;12.03;73.04;100891.91;4996769;28;1898;-79
2021/05/13 05:51:20;;;;;;;;;;;;;;;11.83;73.92;100895.66;4997748;28;901;-79
2021/05/13 05:53:46;;;;;;;;;;;;;;;11.95;73.42;100889.31;4997241;28;1020;-80
2021/05/13 05:56:11;;;;;;;;;;;;;;;12.05;73.93;100883.28;4997658;28;956;-79
2021/05/13 05:58:36;;;;;;;;;;;;;;;12.41;73.16;100885.03;4996926;28;1173;-79
2021/05/13 06:01:03;;;;;;;;;;;;;;;12.94;71.62;100868.19;4997979;28;893;-80
2021/05/13 06:03:28;;;;;;;;;;;;;;;13.62;69.32;100868.13;4997683;28;983;-80
2021/05/13 06:05:54;;;;;;;;;;;;;;;14.16;67.18;100869.22;4997473;28;928;-78
2021/05/13 06:08:19;;;;;;;;;;;;;;;14.48;66.14;100861.44;4980082;28;1393;-79
2021/05/13 06:10:44;;;;;;;;;;;;;;;15.11;64.55;100860.13;4998297;28;1863;-79
2021/05/13 06:13:10;;;;;;;;;;;;;;;16.07;62.93;100859.78;4998373;28;752;-79
2021/05/13 06:15:37;;;;;;;;;;;;;;;17.04;59.35;100857.13;4999433;28;944;-80
2021/05/13 06:18:03;;;;;;;;;;;;;;;17.69;57.87;100858.28;5000489;28;1185;-79
2021/05/13 06:20:31;;;;;;;;;;;;;;;18.06;56.40;100856.47;5000709;28;1069;-79
2021/05/13 06:22:56;;;;;;;;;;;;;;;18.54;55.45;100853.34;5001660;28;805;-79
2021/05/13 06:25:24;;;;;;;;;;;;;;;19.19;51.83;100845.75;5002464;28;882;-80
2021/05/13 06:27:50;;;;;;;;;;;;;;;19.83;51.58;100838.34;5001840;28;1186;-80
2021/05/13 06:30:17;;;;;;;;;;;;;;;21.45;48.24;100829.41;5002457;28;1957;-79
2021/05/13 06:32:46;;;;;;;;;;;;;;;22.96;43.62;100827.25;5004491;28;980;-78
2021/05/13 06:35:15;;;;;;;;;;;;;;;22.72;42.37;100829.28;5005852;28;966;-81
2021/05/13 06:37:40;;;;;;;;;;;;;;;21.60;44.26;100825.25;4985880;28;1413;-79
2021/05/13 06:40:06;;;;;;;;;;;;;;;20.27;44.29;100839.69;4998584;28;624;-75
2021/05/13 06:42:32;;;;;;;;;;;;;;;19.03;49.12;100834.97;4995886;28;883;-76
2021/05/13 06:44:57;;;;;;;;;;;;;;;17.96;51.16;100832.88;4995879;28;980;-74
2021/05/13 06:47:23;;;;;;;;;;;;;;;17.36;52.09;100829.44;4995325;28;1257;-74
2021/05/13 06:49:49;;;;;;;;;;;;;;;17.09;52.63;100840.03;4995975;28;1972;-77
2021/05/13 06:52:15;;;;;;;;;;;;;;;16.65;52.53;100833.31;4995824;28;872;-77
2021/05/13 06:54:40;;;;;;;;;;;;;;;16.47;53.62;100833.16;4995681;28;984;-78
2021/05/13 06:57:06;;;;;;;;;;;;;;;16.35;52.37;100834.25;4995156;28;1181;-78
2021/05/13 06:59:31;;;;;;;;;;;;;;;16.36;52.12;100835.81;4995109;28;1764;-79
2021/05/13 07:01:57;;;;;;;;;;;;;;;16.19;53.22;100838.44;4995096;28;1956;-78
2021/05/13 07:04:23;;;;;;;;;;;;;;;15.99;52.71;100835.88;4995746;28;881;-77
2021/05/13 07:06:49;;;;;;;;;;;;;;;15.98;53.65;100834.25;4998535;28;1272;-78
2021/05/13 07:09:14;;;;;;;;;;;;;;;16.11;54.09;100838.38;4999376;28;2196;-78
2021/05/13 07:11:40;;;;;;;;;;;;;;;16.31;53.63;100830.59;4999507;28;860;-78
2021/05/13 07:14:05;;;;;;;;;;;;;;;16.42;53.15;100841.88;4999829;28;880;-77
2021/05/13 07:16:33;;;;;;;;;;;;;;;16.41;52.70;100826.31;4999442;28;2021;-78
2021/05/13 07:18:58;;;;;;;;;;;;;;;16.32;52.77;100829.44;4998634;28;1213;-77
2021/05/13 07:21:24;;;;;;;;;;;;;;;16.31;53.00;100829.81;5000128;28;955;-78
2021/05/13 07:23:49;;;;;;;;;;;;;;;16.12;53.11;100826.03;4999140;28;836;-77
2021/05/13 07:26:15;;;;;;;;;;;;;;;15.95;54.06;100832.22;4999013;28;2191;-78
2021/05/13 07:28:40;;;;;;;;;;;;;;;15.93;54.46;100831.81;4998565;28;1870;-78
2021/05/13 07:31:07;;;;;;;;;;;;;;;16.00;54.20;100839.44;4999323;28;2052;-78
2021/05/13 07:33:32;;;;;;;;;;;;;;;15.91;54.58;100837.75;4999522;28;852;-78
2021/05/13 07:35:58;;;;;;;;;;;;;;;15.89;54.76;100840.13;4994267;28;2162;-77
2021/05/13 07:38:24;;;;;;;;;;;;;;;15.71;54.95;100839.06;4979140;28;1186;-77
2021/05/13 07:40:49;;;;;;;;;;;;;;;15.44;55.84;100833.56;4996154;28;2103;-78
2021/05/13 07:43:15;;;;;;;;;;;;;;;15.64;55.00;100845.34;4999442;28;1076;-78
2021/05/13 07:45:43;;;;;;;;;;;;;;;15.94;54.65;100839.78;4999092;28;2099;-77
2021/05/13 07:48:10;;;;;;;;;;;;;;;15.94;54.41;100833.41;4998521;28;1260;-78
2021/05/13 07:50:35;;;;;;;;;;;;;;;15.94;54.08;100839.00;4998580;28;2219;-77
2021/05/13 07:53:01;;;;;;;;;;;;;;;16.36;53.44;100829.47;4998731;28;980;-78
2021/05/13 07:55:26;;;;;;;;;;;;;;;16.55;51.70;100832.00;4998765;28;875;-78
2021/05/13 07:57:51;;;;;;;;;;;;;;;16.61;52.72;100840.84;4998225;28;1182;-79
2021/05/13 08:00:17;;;;;;;;;;;;;;;16.62;52.47;100842.44;4999450;28;2065;-80
2021/05/13 08:02:43;;;;;;;;;;;;;;;16.85;51.33;100836.69;4999078;28;2021;-77
2021/05/13 08:05:09;;;;;;;;;;;;;;;16.74;51.59;100832.97;4998534;28;1043;-77
2021/05/13 08:07:35;;;;;;;;;;;;;;;16.61;53.32;100840.03;4998188;28;1173;-78
2021/05/13 08:10:00;;;;;;;;;;;;;;;16.74;52.40;100830.97;4999090;28;2168;-75
2021/05/13 08:12:26;;;;;;;;;;;;;;;17.23;52.05;100833.72;5000921;28;849;-77
2021/05/13 08:14:52;;;;;;;;;;;;;;;17.45;51.20;100838.22;4997946;28;2055;-79
2021/05/13 08:17:17;;;;;;;;;;;;;;;17.74;50.29;100832.78;4997299;28;2011;-78
2021/05/13 08:19:42;;;;;;;;;;;;;;;17.94;49.64;100832.47;4983217;28;1135;-78
2021/05/13 08:22:08;;;;;;;;;;;;;;;19.07;47.90;100832.19;4998865;28;2075;-78
2021/05/13 08:24:34;;;;;;;;;;;;;;;20.72;43.63;100827.78;4999403;28;878;-78
2021/05/13 08:27:01;;;;;;;;;;;;;;;22.11;40.12;100827.38;4984219;28;1217;-78
2021/05/13 08:29:28;;;;;;;;;;;;;;;22.31;39.29;100825.50;4999002;28;1882;-78
2021/05/13 08:31:53;;;;;;;;;;;;;;;21.99;40.26;100825.94;4998152;28;1878;-77
2021/05/13 08:34:22;;;;;;;;;;;;;;;21.62;39.04;100822.03;4999670;28;1200;-78
2021/05/13 08:36:47;;;;;;;;;;;;;;;21.69;40.17;100827.56;4998159;28;1197;-78
2021/05/13 08:39:33;;;;;;;;;;;;;;;21.64;39.74;100825.22;4981708;28;1268;-78
2021/05/13 08:42:00;;;;;;;;;;;;;;;22.93;37.81;100822.47;4997778;28;2140;-78
2021/05/13 08:44:28;;;;;;;;;;;;;;;23.89;35.97;100827.47;4997653;28;896;-78
2021/05/13 08:46:53;;;;;;;;;;;;;;;25.61;32.73;100811.03;4979114;28;1823;-77
2021/05/13 08:49:21;;;;;;;;;;;;;;;28.06;29.96;100814.03;4997752;28;1971;-77
2021/05/13 08:51:47;;;;;;;;;;;;;;;28.64;28.11;100815.34;4997379;28;2110;-76
2021/05/13 08:54:12;;;;;;;;;;;;;;;29.41;27.02;100806.66;4996261;28;961;-76
2021/05/13 08:56:38;;;;;;;;;;;;;;;30.11;26.14;100800.16;4995956;28;809;-77
2021/05/13 08:59:04;;;;;;;;;;;;;;;30.55;26.03;100793.91;4997234;28;1202;-79
2021/05/13 09:01:30;;;;;;;;;;;;;;;30.37;24.56;100791.22;4997242;28;1985;-77
2021/05/13 09:03:58;;;;;;;;;;;;;;;31.04;23.91;100788.19;4997512;28;947;-77
2021/05/13 09:06:40;;;;;;;;;;;;;;;32.33;22.55;100781.06;4997567;28;818;-77
2021/05/13 09:09:11;;;;;;;;;;;;;;;32.94;20.80;100782.38;4996415;28;1941;-78
2021/05/13 09:11:48;;;;;;;;;;;;;;;33.46;21.32;100775.91;4996672;28;1886;-78
2021/05/13 09:14:20;;;;;;;;;;;;;;;33.54;21.00;100769.22;4995908;28;1839;-76
2021/05/13 09:16:48;;;;;;;;;;;;;;;32.27;20.71;100768.00;4996644;28;2000;-79
2021/05/13 09:19:31;;;;;;;;;;;;;;;32.21;21.59;100773.63;4996853;28;817;-77
2021/05/13 09:22:04;;;;;;;;;;;;;;;33.14;20.62;100762.34;4996558;28;2110;-79
2021/05/13 09:24:50;;;;;;;;;;;;;;;33.12;19.59;100762.03;4979634;28;904;-78
2021/05/13 09:27:21;;;;;;;;;;;;;;;33.52;19.53;100759.59;4996734;28;1190;-77
2021/05/13 09:30:00;;;;;;;;;;;;;;;32.38;20.44;100754.66;4995558;28;2028;-78
2021/05/13 09:32:26;;;;;;;;;;;;;;;32.52;20.55;100749.38;4977653;28;850;-79
2021/05/13 09:34:51;;;;;;;;;;;;;;;33.24;19.40;100740.09;4971876;28;2119;-78
2021/05/13 09:37:16;;;;;;;;;;;;;;;33.82;18.64;100751.50;4996349;28;1174;-78
2021/05/13 09:39:47;;;;;;;;;;;;;;;32.95;19.39;100758.22;4996544;28;2048;-78
2021/05/13 09:42:16;;;;;;;;;;;;;;;31.96;20.00;100744.44;4996864;28;896;-79
2021/05/13 09:44:42;;;;;;;;;;;;;;;31.69;20.90;100745.56;4996971;28;891;-78
2021/05/13 09:47:14;;;;;;;;;;;;;;;32.00;21.06;100753.56;4995722;28;2028;-78
2021/05/13 09:50:02;;;;;;;;;;;;;;;32.60;19.96;100751.31;4996183;28;1898;-78
2021/05/13 09:52:40;;;;;;;;;;;;;;;32.83;19.05;100751.59;4989937;28;2128;-78
2021/05/13 09:55:22;;;;;;;;;;;;;;;33.68;19.06;100752.44;4997146;28;799;-78
2021/05/13 09:57:50;;;;;;;;;;;;;;;34.25;17.54;100745.81;4996570;28;1185;-78
2021/05/13 10:00:35;;;;;;;;;;;;;;;34.08;18.49;100739.19;4995364;28;2032;-78
2021/05/13 10:03:03;;;;;;;;;;;;;;;35.16;17.84;100741.19;4996345;28;903;-77
2021/05/13 10:05:29;;;;;;;;;;;;;;;34.98;17.44;100739.59;4996212;28;892;-76
2021/05/13 10:07:55;;;;;;;;;;;;;;;35.06;16.95;100739.88;4996184;28;1209;-78
2021/05/13 10:10:20;;;;;;;;;;;;;;;35.21;17.40;100728.16;4991761;28;2106;-77
2021/05/13 10:12:46;;;;;;;;;;;;;;;34.26;18.61;100733.06;4976425;28;896;-79
2021/05/13 10:15:13;;;;;;;;;;;;;;;32.31;19.49;100734.31;4979881;28;1960;-78
2021/05/13 10:17:44;;;;;;;;;;;;;;;30.22;22.06;100747.59;4995443;28;1264;-78
2021/05/13 10:20:13;;;;;;;;;;;;;;;28.22;23.83;100739.19;4995428;28;2121;-78
2021/05/13 10:22:42;;;;;;;;;;;;;;;26.61;26.74;100744.81;4995641;28;924;-78
2021/05/13 10:25:20;;;;;;;;;;;;;;;25.95;27.40;100746.59;4995900;28;780;-77
2021/05/13 10:27:54;;;;;;;;;;;;;;;24.23;29.62;100760.63;4994998;28;1878;-78
2021/05/13 10:30:30;;;;;;;;;;;;;;;23.66;29.85;100749.41;4994596;28;2003;-77
2021/05/13 10:33:08;;;;;;;;;;;;;;;26.73;27.40;100743.19;4996283;28;2001;-78
2021/05/13 10:35:34;;;;;;;;;;;;;;;28.43;24.23;100746.00;4996537;28;988;-77
2021/05/13 10:38:04;;;;;;;;;;;;;;;27.00;26.34;100739.78;4995718;28;1182;-78
2021/05/13 10:40:47;;;;;;;;;;;;;;;25.59;28.90;100742.03;4995632;28;2100;-78
2021/05/13 10:43:13;;;;;;;;;;;;;;;26.55;28.75;100740.19;4978085;28;2006;-77
2021/05/13 10:45:45;;;;;;;;;;;;;;;28.22;25.10;100736.34;4995796;28;2231;-77
2021/05/13 10:48:28;;;;;;;;;;;;;;;28.42;24.37;100730.22;4996304;28;1226;-78
2021/05/13 10:51:07;;;;;;;;;;;;;;;28.94;24.34;100734.06;4998632;28;1993;-79
2021/05/13 10:53:48;;;;;;;;;;;;;;;28.84;24.19;100726.81;4999489;28;818;-79
2021/05/13 10:56:14;;;;;;;;;;;;;;;29.44;24.06;100725.31;4983026;28;2055;-78
2021/05/13 10:59:07;;;;;;;;;;;;;;;29.14;24.66;100721.41;5000758;28;1202;-79
2021/05/13 11:01:51;;;;;;;;;;;;;;;29.43;24.89;100730.22;4996238;28;1716;-79
2021/05/13 11:04:22;;;;;;;;;;;;;;;29.92;24.26;100724.69;4999891;28;932;-77
2021/05/13 11:06:55;;;;;;;;;;;;;;;30.02;23.84;100726.19;4995115;28;2064;-76
2021/05/13 11:09:39;;;;;;;;;;;;;;;28.81;25.23;100727.75;4996823;28;1910;-77
2021/05/13 11:12:14;;;;;;;;;;;;;;;28.97;25.97;100735.19;4995335;28;2103;-79
2021/05/13 11:20:23;;;;;;;;;;;;;;;31.36;22.53;100718.03;4999257;28;987;-78
2021/05/13 11:22:51;;;;;;;;;;;;;;;30.11;24.55;100723.31;4997128;28;2113;-78
2021/05/13 11:25:16;;;;;;;;;;;;;;;29.03;25.52;100731.19;4996443;28;2000;-77
2021/05/13 11:27:41;;;;;;;;;;;;;;;28.73;25.38;100737.88;4978247;28;2084;-78
2021/05/13 11:30:07;;;;;;;;;;;;;;;28.49;25.10;100738.44;4994663;28;1899;-78
2021/05/13 11:32:34;;;;;;;;;;;;;;;28.98;25.04;100725.38;4995284;28;2286;-78
2021/05/13 11:35:00;;;;;;;;;;;;;;;29.87;24.50;100723.28;4996597;28;2014;-78
2021/05/13 11:37:39;;;;;;;;;;;;;;;31.11;23.46;100720.19;4996046;28;1927;-78
2021/05/13 11:40:30;;;;;;;;;;;;;;;30.61;22.86;100717.16;4998082;28;833;-78
2021/05/13 11:43:20;;;;;;;;;;;;;;;30.08;22.99;100721.44;4998699;28;1007;-77
2021/05/13 11:45:47;;;;;;;;;;;;;;;30.05;23.29;100716.69;4998531;28;992;-78
2021/05/13 11:48:22;;;;;;;;;;;;;;;29.96;23.29;100720.38;4998289;28;2004;-78
2021/05/13 11:50:48;;;;;;;;;;;;;;;28.80;25.66;100714.81;4979562;28;1875;-78
2021/05/13 11:53:15;;;;;;;;;;;;;;;28.41;24.56;100714.44;4998685;28;884;-78
2021/05/13 11:55:42;;;;;;;;;;;;;;;28.53;25.46;100722.03;4998985;28;2091;-78
2021/05/13 11:58:09;;;;;;;;;;;;;;;27.77;26.80;100721.50;4998299;28;2005;-79
2021/05/13 12:00:35;;;;;;;;;;;;;;;25.76;28.96;100728.59;4998816;28;1106;-78
2021/05/13 12:03:11;;;;;;;;;;;;;;;25.12;30.21;100732.88;4997974;28;1930;-78
2021/05/13 12:05:53;;;;;;;;;;;;;;;25.77;30.38;100721.69;4999109;28;829;-78
2021/05/13 12:08:21;;;;;;;;;;;;;;;26.72;28.79;100721.00;4997655;28;1178;-78
2021/05/13 12:10:47;;;;;;;;;;;;;;;27.88;27.60;100732.44;4998471;28;1894;-78
2021/05/13 12:13:13;;;;;;;;;;;;;;;29.07;26.55;100733.91;4997695;28;2015;-78
2021/05/13 12:15:38;;;;;;;;;;;;;;;28.77;25.02;100724.28;4997693;28;2004;-77
2021/05/13 12:18:04;;;;;;;;;;;;;;;27.68;27.43;100715.81;4997182;28;2008;-78
2021/05/13 12:20:32;;;;;;;;;;;;;;;27.26;28.99;100716.97;4997870;28;2115;-77
2021/05/13 12:22:58;;;;;;;;;;;;;;;27.90;28.66;100722.19;4997670;28;1953;-77
2021/05/13 12:25:24;;;;;;;;;;;;;;;29.72;26.38;100723.16;4997962;28;837;-77
2021/05/13 12:27:49;;;;;;;;;;;;;;;29.83;25.22;100710.50;4997347;28;1241;-78
2021/05/13 12:30:18;;;;;;;;;;;;;;;29.10;26.83;100718.72;4997871;28;1948;-77
2021/05/13 12:32:43;;;;;;;;;;;;;;;28.38;26.84;100724.72;4997157;28;2075;-78
2021/05/13 12:35:29;;;;;;;;;;;;;;;28.66;27.57;100716.25;4997685;28;1019;-77
2021/05/13 12:38:12;;;;;;;;;;;;;;;27.77;28.12;100719.47;4997001;28;1150;-79
2021/05/13 12:40:38;;;;;;;;;;;;;;;27.80;29.00;100722.63;4998821;28;850;-79
2021/05/13 12:43:29;;;;;;;;;;;;;;;28.31;27.45;100720.13;4998348;28;2219;-78
2021/05/13 12:45:54;;;;;;;;;;;;;;;29.11;25.86;100714.63;4996487;28;1430;-78
2021/05/13 12:48:22;;;;;;;;;;;;;;;28.69;26.57;100715.31;4997223;28;2071;-78
2021/05/13 12:51:09;;;;;;;;;;;;;;;28.22;26.93;100716.47;4998280;28;2017;-78
2021/05/13 12:53:35;;;;;;;;;;;;;;;28.76;28.61;100720.66;4997468;28;2123;-78
2021/05/13 12:56:00;;;;;;;;;;;;;;;28.99;26.40;100719.22;4998348;28;999;-77
2021/05/13 12:58:27;;;;;;;;;;;;;;;28.42;26.47;100704.69;4997625;28;1139;-78
2021/05/13 13:00:58;;;;;;;;;;;;;;;27.66;27.66;100712.66;4997736;28;2156;-77
2021/05/13 13:03:39;;;;;;;;;;;;;;;27.97;27.60;100706.19;4997079;28;2028;-77
2021/05/13 13:06:08;;;;;;;;;;;;;;;28.32;28.57;100709.56;4997138;28;2002;-77
2021/05/13 13:08:45;;;;;;;;;;;;;;;28.29;27.24;100704.81;4997332;28;1126;-77
2021/05/13 13:11:12;;;;;;;;;;;;;;;27.90;28.86;100701.56;4997478;28;1905;-78